Time;durP1;ratioP1;P1;durP2;ratioP2;P2;SDS_P1;SDS_P2;PMS_P1;PMS_P2;Temp;Humidity;BMP_temperature;BMP_pressure;BME280_temperature;BME280_humidity;BME280_pressure;Samples;Min_cycle;Max_cycle;Signal;HPM_P1;HPM_P2
2023/12/24 00:00:04;;;;;;;;;;;12.40;53.90;;;12.53;57.44;99769.81;5072757;28;19924;-35
2023/12/24 00:02:31;;;;;;;;;;;12.40;53.90;;;12.58;56.90;99783.81;5073683;28;20019;-34
2023/12/24 00:05:00;;;;;;;;;;;12.40;53.90;;;12.56;57.44;99797.81;5073149;28;19975;-32
2023/12/24 00:07:28;;;;;;;;;;;12.40;53.90;;;12.57;57.20;99771.97;5072568;28;19974;-32
2023/12/24 00:09:56;;;;;;;;;;;12.40;54.00;;;12.57;57.41;99771.06;5073511;28;20354;-33
2023/12/24 00:12:24;;;;;;;;;;;12.40;53.90;;;12.54;56.49;99764.09;5072209;28;20411;-34
2023/12/24 00:14:54;;;;;;;;;;;12.40;54.00;;;12.57;56.78;99759.41;5070283;28;19954;-34
2023/12/24 00:17:22;;;;;;;;;;;12.40;54.00;;;12.58;57.53;99752.75;5072517;28;19928;-32
2023/12/24 00:19:50;;;;;;;;;;;12.40;53.90;;;12.56;57.08;99759.22;5075129;28;19978;-32
2023/12/24 00:22:18;;;;;;;;;;;12.40;53.90;;;12.56;57.35;99755.09;5077447;28;19925;-34
2023/12/24 00:24:46;;;;;;;;;;;12.40;54.00;;;12.31;56.53;99720.53;5077094;28;20402;-33
2023/12/24 00:27:14;;;;;;;;;;;12.40;53.90;;;12.57;57.57;99761.00;5076751;28;20007;-34
2023/12/24 00:29:42;;;;;;;;;;;12.40;54.00;;;12.57;56.90;99761.91;5077264;28;19924;-34
2023/12/24 00:32:11;;;;;;;;;;;12.40;54.00;;;12.56;56.86;99770.16;5077641;28;20009;-33
2023/12/24 00:34:39;;;;;;;;;;;12.40;54.00;;;12.56;57.33;99759.22;5077083;28;19967;-35
2023/12/24 00:37:07;;;;;;;;;;;12.40;53.90;;;12.55;57.30;99770.00;5076809;28;19978;-33
2023/12/24 00:39:35;;;;;;;;;;;12.40;54.00;;;12.55;57.03;99768.38;5077250;28;19931;-32
2023/12/24 00:42:03;;;;;;;;;;;12.40;54.00;;;12.55;57.48;99785.97;5076646;28;19932;-33
2023/12/24 00:44:31;;;;;;;;;;;12.40;54.00;;;12.55;57.41;99780.94;5077347;28;19931;-37
2023/12/24 00:47:00;;;;;;;;;;;12.40;54.00;;;12.55;57.19;99778.44;5076670;28;19929;-35
2023/12/24 00:49:29;;;;;;;;;;;12.40;54.00;;;12.56;56.76;99775.19;5077532;28;19928;-35
2023/12/24 00:51:57;;;;;;;;;;;12.40;54.00;;;12.45;56.99;99748.03;5080695;28;20323;-32
2023/12/24 00:54:25;;;;;;;;;;;12.40;53.90;;;12.53;57.35;99764.81;5080253;28;19980;-31
2023/12/24 00:56:53;;;;;;;;;;;12.40;53.90;;;12.57;57.15;99763.53;5079741;28;19929;-39
2023/12/24 00:59:21;;;;;;;;;;;12.40;53.90;;;12.53;56.36;99759.78;5072555;28;19929;-32
2023/12/24 01:01:49;;;;;;;;;;;12.40;53.90;;;12.56;56.77;99762.63;5079655;28;20406;-33
2023/12/24 01:04:17;;;;;;;;;;;12.40;53.90;;;12.59;57.07;99770.50;5079938;28;19975;-32
2023/12/24 01:06:46;;;;;;;;;;;12.40;53.90;;;12.56;57.26;99770.16;5076810;28;19924;-33
2023/12/24 01:09:14;;;;;;;;;;;12.40;53.80;;;12.58;56.88;99778.78;5076771;28;20027;-33
2023/12/24 01:11:42;;;;;;;;;;;12.40;53.80;;;12.54;57.11;99768.22;5076452;28;19971;-34
2023/12/24 01:14:10;;;;;;;;;;;12.40;53.80;;;12.60;57.15;99767.25;5071840;28;19928;-36
2023/12/24 01:16:40;;;;;;;;;;;12.40;53.80;;;12.61;57.11;99778.19;5076108;28;20288;-35
2023/12/24 01:19:08;;;;;;;;;;;12.40;53.80;;;12.60;57.66;99777.31;5076686;28;19925;-33
2023/12/24 01:21:36;;;;;;;;;;;12.40;53.80;;;12.61;56.68;99783.22;5076407;28;19924;-33
2023/12/24 01:24:06;;;;;;;;;;;12.40;53.80;;;12.50;56.16;99759.47;5076330;28;19950;-33
2023/12/24 01:26:35;;;;;;;;;;;12.40;53.80;;;12.61;56.99;99801.72;5077541;28;20007;-33
2023/12/24 01:29:03;;;;;;;;;;;12.40;53.70;;;12.63;56.72;99785.19;5076446;28;19924;-34
2023/12/24 01:31:31;;;;;;;;;;;12.40;53.80;;;12.62;57.62;99780.88;5076321;28;19967;-34
2023/12/24 01:33:59;;;;;;;;;;;12.40;53.80;;;12.64;56.59;99781.94;5076074;28;19978;-36
2023/12/24 01:36:27;;;;;;;;;;;12.40;53.70;;;12.63;56.70;99772.63;5075958;28;19968;-36
2023/12/24 01:38:55;;;;;;;;;;;12.40;53.80;;;12.57;57.11;99789.56;5076323;28;19928;-36
2023/12/24 01:41:24;;;;;;;;;;;12.40;53.80;;;12.60;56.58;99782.31;5068177;28;19931;-35
2023/12/24 01:43:52;;;;;;;;;;;12.40;53.80;;;12.60;56.36;99787.34;5075796;28;19928;-36
2023/12/24 01:46:21;;;;;;;;;;;12.40;53.80;;;12.59;56.68;99775.50;5075265;28;19932;-36
2023/12/24 01:48:49;;;;;;;;;;;12.40;53.80;;;12.60;57.02;99772.28;5076034;28;19954;-36
2023/12/24 01:51:18;;;;;;;;;;;12.40;53.80;;;12.60;57.03;99772.28;5075646;28;19931;-37
2023/12/24 01:53:46;;;;;;;;;;;12.40;53.80;;;12.58;56.36;99768.72;5076337;28;19925;-36
2023/12/24 01:56:14;;;;;;;;;;;12.40;53.80;;;12.58;56.88;99778.78;5075371;28;20367;-36
2023/12/24 01:58:43;;;;;;;;;;;12.40;53.90;;;12.57;56.79;99771.97;5075846;28;20340;-36
2023/12/24 02:01:11;;;;;;;;;;;12.40;53.80;;;12.58;57.24;99773.75;5075592;28;19984;-36
2023/12/24 02:03:39;;;;;;;;;;;12.40;53.80;;;12.54;56.72;99775.75;5075925;28;19924;-36
2023/12/24 02:06:08;;;;;;;;;;;12.40;53.80;;;12.56;56.93;99775.19;5075130;28;19928;-33
2023/12/24 02:08:37;;;;;;;;;;;12.40;53.80;;;12.56;57.40;99772.69;5076195;28;19928;-36
2023/12/24 02:11:05;;;;;;;;;;;12.40;53.90;;;12.51;56.75;99778.84;5075394;28;19925;-36
2023/12/24 02:13:33;;;;;;;;;;;12.40;53.90;;;12.52;57.04;99768.03;5074522;28;19924;-35
2023/12/24 02:16:03;;;;;;;;;;;12.40;53.90;;;12.55;57.08;99763.34;5075589;28;19978;-35
2023/12/24 02:18:32;;;;;;;;;;;12.40;53.90;;;12.56;57.38;99767.66;5075226;28;19976;-35
2023/12/24 02:21:03;;;;;;;;;;;12.40;53.90;;;12.56;56.67;99765.16;5077467;28;19971;-36
2023/12/24 02:23:31;;;;;;;;;;;12.40;53.90;;;12.53;57.08;99747.22;5074969;28;19983;-36
2023/12/24 02:26:03;;;;;;;;;;;12.40;53.80;;;12.59;56.75;99750.38;5077207;28;19924;-37
2023/12/24 02:28:32;;;;;;;;;;;12.40;53.80;;;12.60;57.27;99744.63;5077754;28;20011;-36
2023/12/24 02:31:00;;;;;;;;;;;12.40;53.90;;;12.61;56.22;99743.91;5074524;28;19972;-36
2023/12/24 02:33:29;;;;;;;;;;;12.40;53.80;;;12.65;57.17;99735.06;5077552;28;19924;-36
2023/12/24 02:35:57;;;;;;;;;;;12.40;53.80;;;12.65;57.02;99730.94;5077901;28;19924;-36
2023/12/24 02:38:27;;;;;;;;;;;12.40;53.80;;;12.65;57.46;99710.81;5076954;28;19924;-36
2023/12/24 02:40:55;;;;;;;;;;;12.40;53.80;;;12.66;56.78;99711.72;5077872;28;19982;-37
2023/12/24 02:43:23;;;;;;;;;;;12.50;53.80;;;12.69;57.42;99720.50;5077560;28;19925;-37
2023/12/24 02:45:51;;;;;;;;;;;12.50;53.70;;;12.70;56.61;99728.94;5078164;28;19932;-37
2023/12/24 02:48:19;;;;;;;;;;;12.50;53.70;;;12.65;56.92;99725.91;5076797;28;19925;-37
2023/12/24 02:50:47;;;;;;;;;;;12.50;53.70;;;12.70;56.48;99729.81;5074745;28;19924;-37
2023/12/24 02:53:15;;;;;;;;;;;12.50;53.70;;;12.72;56.30;99728.34;5074654;28;19924;-37
2023/12/24 02:55:44;;;;;;;;;;;12.50;53.60;;;12.73;56.80;99722.59;5074399;28;19951;-36
2023/12/24 02:58:12;;;;;;;;;;;12.50;53.70;;;12.74;56.65;99714.34;5074036;28;19951;-36
2023/12/24 03:00:40;;;;;;;;;;;12.50;53.70;;;12.74;56.27;99716.84;5074048;28;19924;-36
2023/12/24 03:03:08;;;;;;;;;;;12.50;53.50;;;12.74;56.51;99705.91;5074002;28;19924;-35
2023/12/24 03:05:36;;;;;;;;;;;12.50;53.50;;;12.74;57.06;99701.75;5074360;28;19924;-36
2023/12/24 03:08:04;;;;;;;;;;;12.50;53.70;;;12.75;57.03;99708.59;5073398;28;20033;-37
2023/12/24 03:10:32;;;;;;;;;;;12.50;53.50;;;12.69;57.25;99697.88;5073547;28;19960;-37
2023/12/24 03:13:02;;;;;;;;;;;12.50;53.60;;;12.73;56.03;99707.53;5067810;28;20012;-36
2023/12/24 03:15:30;;;;;;;;;;;12.50;53.70;;;12.73;56.37;99704.13;5065840;28;19931;-37
2023/12/24 03:17:57;;;;;;;;;;;12.50;53.70;;;12.71;57.55;99695.53;5072949;28;19924;-37
2023/12/24 03:20:26;;;;;;;;;;;12.50;53.70;;;12.71;56.63;99696.41;5073582;28;19931;-37
2023/12/24 03:22:54;;;;;;;;;;;12.50;53.70;;;12.70;56.92;99698.78;5073491;28;19928;-37
2023/12/24 03:25:22;;;;;;;;;;;12.50;53.80;;;12.70;56.52;99687.09;5073659;28;20016;-37
2023/12/24 03:27:50;;;;;;;;;;;12.50;53.80;;;12.68;57.26;99683.53;5073293;28;19983;-37
2023/12/24 03:30:19;;;;;;;;;;;12.50;54.30;;;12.65;57.75;99684.81;5071154;28;19931;-37
2023/12/24 03:32:47;;;;;;;;;;;12.50;53.80;;;12.60;56.94;99664.22;5067863;28;20442;-36
2023/12/24 03:35:15;;;;;;;;;;;12.50;53.90;;;12.64;57.18;99663.84;5073197;28;20012;-36
2023/12/24 03:37:43;;;;;;;;;;;12.50;53.90;;;12.60;56.98;99651.66;5072856;28;19939;-38
2023/12/24 03:40:12;;;;;;;;;;;12.50;54.60;;;12.58;57.73;99653.16;5073467;28;19924;-37
2023/12/24 03:42:40;;;;;;;;;;;12.50;54.00;;;12.63;57.09;99657.03;5074401;28;19964;-35
2023/12/24 03:45:08;;;;;;;;;;;12.40;54.00;;;12.62;57.97;99650.22;5072987;28;19925;-37
2023/12/24 03:47:38;;;;;;;;;;;12.50;54.00;;;12.62;56.57;99665.28;5071789;28;19924;-37
2023/12/24 03:50:06;;;;;;;;;;;12.50;54.00;;;12.62;56.50;99670.31;5071826;28;19924;-37
2023/12/24 03:52:34;;;;;;;;;;;12.50;54.00;;;12.62;56.84;99670.31;5072291;28;19929;-37
2023/12/24 03:55:02;;;;;;;;;;;12.50;54.10;;;12.62;56.92;99679.47;5071708;28;19952;-36
2023/12/24 03:57:30;;;;;;;;;;;12.50;54.00;;;12.62;57.00;99675.34;5063648;28;19932;-37
2023/12/24 03:59:58;;;;;;;;;;;12.50;54.00;;;12.57;57.07;99673.97;5072151;28;20117;-36
2023/12/24 04:02:26;;;;;;;;;;;12.50;54.00;;;12.63;57.36;99687.19;5072383;28;19925;-36
2023/12/24 04:04:55;;;;;;;;;;;12.50;54.00;;;12.57;57.33;99671.44;5071907;28;20415;-37
2023/12/24 04:07:23;;;;;;;;;;;12.50;54.00;;;12.59;56.88;99672.47;5071213;28;20384;-36
2023/12/24 04:09:51;;;;;;;;;;;12.40;54.00;;;12.55;57.34;99666.97;5072291;28;19934;-37
2023/12/24 04:12:19;;;;;;;;;;;12.40;54.20;;;12.54;57.57;99676.13;5086738;22;20027;-36
2023/12/24 04:14:47;;;;;;;;;;;12.40;54.20;;;12.55;57.13;99675.41;5069077;28;19968;-34
2023/12/24 04:17:15;;;;;;;;;;;12.40;54.10;;;12.56;57.33;99674.69;5071016;28;19971;-34
2023/12/24 04:19:43;;;;;;;;;;;12.40;54.10;;;12.57;56.67;99671.44;5071857;28;20295;-34
2023/12/24 04:22:12;;;;;;;;;;;12.40;54.10;;;12.57;57.00;99679.00;5071882;28;20023;-34
2023/12/24 04:24:40;;;;;;;;;;;12.40;54.10;;;12.60;57.47;99659.19;5071699;28;19936;-34
2023/12/24 04:27:08;;;;;;;;;;;12.40;54.00;;;12.61;57.00;99666.00;5075669;28;19931;-34
2023/12/24 04:29:36;;;;;;;;;;;12.40;54.00;;;12.61;56.91;99658.47;5077072;28;20340;-33
2023/12/24 04:32:04;;;;;;;;;;;12.40;54.00;;;12.63;57.42;99657.03;5077923;28;20372;-34
2023/12/24 04:34:32;;;;;;;;;;;12.40;54.00;;;12.66;56.69;99653.94;5064097;28;19931;-33
2023/12/24 04:37:00;;;;;;;;;;;12.40;54.00;;;12.70;56.83;99658.56;5071449;28;19925;-34
2023/12/24 04:39:29;;;;;;;;;;;12.50;53.90;;;12.73;56.80;99649.72;5071554;28;19970;-33
2023/12/24 04:41:57;;;;;;;;;;;12.50;53.90;;;12.77;56.67;99656.84;5072027;28;19925;-34
2023/12/24 04:44:25;;;;;;;;;;;12.50;53.90;;;12.85;56.76;99643.47;5070713;28;20385;-34
2023/12/24 04:46:53;;;;;;;;;;;12.50;53.80;;;12.90;56.01;99634.75;5071291;28;19938;-34
2023/12/24 04:49:21;;;;;;;;;;;12.60;53.70;;;12.96;56.12;99633.66;5071874;28;20371;-34
2023/12/24 04:51:49;;;;;;;;;;;12.60;53.60;;;13.03;55.44;99628.50;5071806;28;20387;-34
2023/12/24 04:54:17;;;;;;;;;;;12.70;53.60;;;13.05;56.76;99624.53;5071866;28;20280;-34
2023/12/24 04:56:46;;;;;;;;;;;12.70;53.50;;;13.10;55.48;99624.25;5071979;28;20311;-34
2023/12/24 04:59:14;;;;;;;;;;;12.70;53.40;;;13.07;56.11;99625.59;5071514;28;20014;-34
2023/12/24 05:01:42;;;;;;;;;;;12.80;53.40;;;13.07;55.85;99623.06;5072060;28;19966;-34
2023/12/24 05:04:10;;;;;;;;;;;12.80;53.30;;;13.07;55.70;99608.88;5073165;28;19924;-34
2023/12/24 05:06:38;;;;;;;;;;;12.80;53.30;;;13.03;55.72;99609.28;5094929;28;19912;-34
2023/12/24 05:09:06;;;;;;;;;;;12.80;53.30;;;13.01;56.14;99602.31;5095963;28;20368;-34
2023/12/24 05:11:34;;;;;;;;;;;12.80;53.30;;;12.99;56.45;99591.19;5080902;28;19978;-34
2023/12/24 05:14:03;;;;;;;;;;;12.80;53.40;;;12.97;56.56;99596.06;5068324;28;20334;-34
2023/12/24 05:16:31;;;;;;;;;;;12.80;53.40;;;12.94;56.68;99594.88;5074193;28;19954;-34
2023/12/24 05:18:59;;;;;;;;;;;12.80;53.50;;;12.90;56.15;99594.53;5074892;28;20032;-34
2023/12/24 05:21:29;;;;;;;;;;;12.70;53.40;;;12.88;56.45;99593.50;5074755;28;20038;-34
2023/12/24 05:23:57;;;;;;;;;;;12.70;53.60;;;12.84;56.85;99598.03;5074742;28;19940;-34
2023/12/24 05:26:26;;;;;;;;;;;12.70;53.60;;;12.81;56.47;99598.63;5074300;28;19924;-34
2023/12/24 05:28:54;;;;;;;;;;;12.60;53.80;;;12.78;57.07;99597.41;5074748;28;19970;-34
2023/12/24 05:31:23;;;;;;;;;;;12.60;53.80;;;12.76;57.37;99589.72;5074675;28;20019;-34
2023/12/24 05:33:51;;;;;;;;;;;12.60;54.00;;;12.73;57.07;99584.38;5074685;28;19968;-34
2023/12/24 05:36:19;;;;;;;;;;;12.60;54.10;;;12.70;57.18;99589.09;5073862;28;19978;-34
2023/12/24 05:38:47;;;;;;;;;;;12.50;54.00;;;12.69;57.09;99582.28;5074627;28;20366;-34
2023/12/24 05:41:16;;;;;;;;;;;12.50;54.10;;;12.66;57.39;99576.91;5074434;28;19978;-34
2023/12/24 05:43:44;;;;;;;;;;;12.50;54.20;;;12.64;56.99;99572.47;5074464;28;19924;-34
2023/12/24 05:46:13;;;;;;;;;;;12.50;54.30;;;12.62;58.14;99573.94;5073751;28;19982;-34
2023/12/24 05:48:42;;;;;;;;;;;12.50;54.40;;;12.59;57.64;99564.44;5074314;28;19931;-34
2023/12/24 05:51:10;;;;;;;;;;;12.50;54.50;;;12.57;57.75;99565.91;5074359;28;19928;-34
2023/12/24 05:53:38;;;;;;;;;;;12.40;54.40;;;12.57;57.88;99568.44;5074746;28;19971;-34
2023/12/24 05:56:07;;;;;;;;;;;12.40;54.50;;;12.55;57.98;99574.91;5074420;28;19924;-34
2023/12/24 05:58:35;;;;;;;;;;;12.40;54.70;;;12.54;58.11;99569.72;5065965;28;19979;-34
2023/12/24 06:01:03;;;;;;;;;;;12.40;54.70;;;12.52;58.19;99572.06;5074597;28;19924;-34
2023/12/24 06:03:31;;;;;;;;;;;12.40;54.80;;;12.53;57.72;99548.72;5074099;28;20346;-34
2023/12/24 06:06:00;;;;;;;;;;;12.40;54.90;;;12.50;58.45;99553.44;5074380;28;19924;-34
2023/12/24 06:08:28;;;;;;;;;;;12.30;54.80;;;12.53;58.70;99563.78;5073493;28;19928;-34
2023/12/24 06:10:56;;;;;;;;;;;12.40;55.00;;;12.52;58.25;99562.00;5074055;28;19925;-33
2023/12/24 06:13:24;;;;;;;;;;;12.40;55.00;;;12.54;58.30;99555.53;5066535;28;20377;-34
2023/12/24 06:15:52;;;;;;;;;;;12.40;55.00;;;12.55;58.11;99564.88;5073949;28;19964;-34
2023/12/24 06:18:20;;;;;;;;;;;12.40;54.80;;;12.57;57.99;99555.88;5072653;28;19924;-34
2023/12/24 06:20:48;;;;;;;;;;;12.40;54.90;;;12.57;58.43;99555.88;5073952;28;19929;-34
2023/12/24 06:23:17;;;;;;;;;;;12.40;54.90;;;12.62;58.18;99564.78;5074126;28;19931;-34
2023/12/24 06:25:45;;;;;;;;;;;12.40;54.70;;;12.65;58.06;99555.03;5074134;28;19925;-34
2023/12/24 06:28:13;;;;;;;;;;;12.40;54.80;;;12.66;57.55;99556.81;5073017;28;19934;-34
2023/12/24 06:30:41;;;;;;;;;;;12.40;54.70;;;12.67;57.53;99547.66;5074060;28;19954;-34
2023/12/24 06:33:09;;;;;;;;;;;12.40;54.70;;;12.71;57.90;99557.31;5073584;28;20395;-34
2023/12/24 06:35:37;;;;;;;;;;;12.50;54.80;;;12.72;57.89;99557.44;5073933;28;19931;-34
2023/12/24 06:38:06;;;;;;;;;;;12.50;54.80;;;12.75;58.12;99560.28;5073025;28;19932;-34
2023/12/24 06:40:36;;;;;;;;;;;12.50;54.70;;;12.77;58.02;99556.28;5073213;28;20015;-34
2023/12/24 06:43:04;;;;;;;;;;;12.50;54.80;;;12.77;57.50;99546.25;5073287;28;19928;-34
2023/12/24 06:45:32;;;;;;;;;;;12.50;54.70;;;12.79;56.93;99547.28;5073392;28;20011;-34
2023/12/24 06:48:02;;;;;;;;;;;12.50;54.70;;;12.80;57.72;99559.13;5072951;28;19931;-34
2023/12/24 06:50:31;;;;;;;;;;;12.50;54.60;;;12.81;58.34;99558.41;5073235;28;19925;-34
2023/12/24 06:52:59;;;;;;;;;;;12.50;54.60;;;12.81;57.85;99553.38;5073343;28;20437;-34
2023/12/24 06:55:27;;;;;;;;;;;12.50;54.60;;;12.80;57.28;99546.56;5072768;28;19924;-34
2023/12/24 06:57:56;;;;;;;;;;;12.60;54.50;;;12.82;57.20;99560.19;5072579;28;20024;-34
2023/12/24 07:00:24;;;;;;;;;;;12.60;54.50;;;12.84;58.18;99552.78;5072777;28;20419;-34
2023/12/24 07:02:52;;;;;;;;;;;12.60;54.50;;;12.85;57.85;99560.50;5073360;28;19978;-34
2023/12/24 07:05:21;;;;;;;;;;;12.60;54.50;;;12.88;57.31;99565.84;5072615;28;20023;-34
2023/12/24 07:07:49;;;;;;;;;;;12.60;54.50;;;12.88;56.92;99554.91;5072006;28;20020;-34
2023/12/24 07:10:17;;;;;;;;;;;12.60;54.40;;;12.87;57.50;99543.06;5072768;28;19928;-34
2023/12/24 07:12:45;;;;;;;;;;;12.70;54.40;;;12.86;56.81;99549.72;5072295;28;20447;-34
2023/12/24 07:15:14;;;;;;;;;;;12.70;54.50;;;12.85;57.43;99554.56;5072814;28;20011;-35
2023/12/24 07:17:42;;;;;;;;;;;12.70;54.50;;;12.83;57.55;99541.88;5064287;28;20213;-34
2023/12/24 07:20:12;;;;;;;;;;;12.70;54.50;;;12.83;57.48;99546.00;5072459;28;20015;-34
2023/12/24 07:22:40;;;;;;;;;;;12.60;54.40;;;12.81;57.71;99550.88;5064535;28;19988;-37
2023/12/24 07:25:08;;;;;;;;;;;12.60;54.50;;;12.80;58.64;99543.16;5072741;28;19964;-34
2023/12/24 07:27:36;;;;;;;;;;;12.60;54.70;;;12.81;58.08;99538.31;5071476;28;20012;-34
2023/12/24 07:30:06;;;;;;;;;;;12.60;54.50;;;12.78;57.58;99543.00;5072252;28;19972;-34
2023/12/24 07:32:35;;;;;;;;;;;12.60;54.50;;;12.79;57.38;99542.28;5072299;28;20300;-35
2023/12/24 07:35:04;;;;;;;;;;;12.60;54.50;;;12.78;57.63;99545.50;5072142;28;19946;-35
2023/12/24 07:37:32;;;;;;;;;;;12.60;54.60;;;12.76;57.64;99544.50;5071789;28;19924;-35
2023/12/24 07:40:00;;;;;;;;;;;12.60;54.60;;;12.75;58.89;99542.69;5072203;28;20375;-34
2023/12/24 07:42:27;;;;;;;;;;;12.60;54.80;;;12.74;57.36;99530.84;5072042;28;19928;-34
2023/12/24 07:44:55;;;;;;;;;;;12.60;54.80;;;12.71;57.96;99540.59;5072210;28;20019;-35
2023/12/24 07:47:23;;;;;;;;;;;12.60;54.80;;;12.68;57.85;99540.28;5071298;28;20358;-34
2023/12/24 07:49:53;;;;;;;;;;;12.50;54.70;;;12.66;58.16;99546.75;5072276;28;19928;-35
2023/12/24 07:52:21;;;;;;;;;;;12.50;54.80;;;12.65;58.07;99534.03;5071798;28;20375;-35
2023/12/24 07:54:49;;;;;;;;;;;12.50;54.80;;;12.63;57.96;99531.38;5072239;28;19970;-34
2023/12/24 07:57:17;;;;;;;;;;;12.50;54.90;;;12.61;58.52;99527.81;5071416;28;19924;-37
2023/12/24 07:59:44;;;;;;;;;;;12.50;55.10;;;12.59;58.99;99534.28;5072133;28;19924;-36
2023/12/24 08:02:12;;;;;;;;;;;12.40;54.80;;;12.60;58.35;99537.69;5071777;28;20011;-35
2023/12/24 08:04:41;;;;;;;;;;;12.40;54.90;;;12.59;58.58;99539.31;5072067;28;19964;-35
2023/12/24 08:07:10;;;;;;;;;;;12.40;55.00;;;12.59;57.91;99546.84;5071418;28;20015;-35
2023/12/24 08:09:38;;;;;;;;;;;12.40;55.10;;;12.58;58.36;99537.56;5071686;28;20031;-35
2023/12/24 08:12:06;;;;;;;;;;;12.40;55.10;;;12.59;58.21;99533.38;5071855;28;20019;-36
2023/12/24 08:14:34;;;;;;;;;;;12.40;55.00;;;12.61;58.64;99552.03;5071792;28;19968;-35
2023/12/24 08:17:02;;;;;;;;;;;12.40;55.00;;;12.61;59.08;99542.88;5071454;28;20370;-36
2023/12/24 08:19:30;;;;;;;;;;;12.40;55.20;;;12.62;58.47;99544.66;5071979;28;19964;-35
2023/12/24 08:21:59;;;;;;;;;;;12.40;55.10;;;12.64;58.19;99538.19;5071761;28;19924;-35
2023/12/24 08:24:28;;;;;;;;;;;12.40;55.10;;;12.66;58.39;99543.34;5071718;28;19924;-35
2023/12/24 08:26:56;;;;;;;;;;;12.40;55.10;;;12.66;58.42;99536.72;5071207;28;19925;-36
2023/12/24 08:29:24;;;;;;;;;;;12.40;55.10;;;12.67;57.72;99543.53;5071338;28;19934;-36
2023/12/24 08:31:56;;;;;;;;;;;12.50;55.20;;;12.69;58.68;99536.16;5071704;28;19925;-36
2023/12/24 08:34:24;;;;;;;;;;;12.50;55.10;;;12.69;58.84;99557.16;5071543;28;19931;-35
2023/12/24 08:36:52;;;;;;;;;;;12.50;55.10;;;12.70;58.03;99536.31;5070808;28;19928;-36
2023/12/24 08:39:20;;;;;;;;;;;12.50;55.10;;;12.71;58.43;99534.69;5071408;28;19940;-36
2023/12/24 08:41:49;;;;;;;;;;;12.50;55.00;;;12.71;58.71;99535.56;5075310;28;20004;-36
2023/12/24 08:44:17;;;;;;;;;;;12.50;55.20;;;12.72;57.99;99537.34;5075442;28;19954;-35
2023/12/24 08:46:48;;;;;;;;;;;12.50;55.10;;;12.75;58.20;99542.69;5074983;28;19951;-35
2023/12/24 08:49:16;;;;;;;;;;;12.50;55.30;;;12.78;57.75;99540.47;5075643;28;19956;-35
2023/12/24 08:51:44;;;;;;;;;;;12.50;54.90;;;12.81;58.25;99538.31;5067135;28;19931;-36
2023/12/24 08:54:12;;;;;;;;;;;12.60;54.90;;;12.85;58.08;99530.34;5075331;28;20008;-35
2023/12/24 08:56:40;;;;;;;;;;;12.60;54.80;;;12.87;57.70;99528.88;5074956;28;19955;-35
2023/12/24 08:59:09;;;;;;;;;;;12.60;54.90;;;12.86;57.69;99532.13;5075738;28;19935;-35
2023/12/24 09:01:40;;;;;;;;;;;12.60;54.80;;;12.89;58.50;99536.59;5075218;28;19924;-35
2023/12/24 09:04:08;;;;;;;;;;;12.70;54.80;;;12.88;57.78;99540.72;5075044;28;19979;-35
2023/12/24 09:06:37;;;;;;;;;;;12.70;54.80;;;12.86;57.82;99534.63;5074076;28;19954;-36
2023/12/24 09:09:05;;;;;;;;;;;12.70;54.80;;;12.86;57.43;99531.22;5075336;28;19933;-35
2023/12/24 09:11:33;;;;;;;;;;;12.70;55.30;;;12.86;57.96;99534.63;5074988;28;19970;-36
2023/12/24 09:14:01;;;;;;;;;;;12.70;54.80;;;12.85;58.20;99530.34;5074763;28;19928;-36
2023/12/24 09:16:30;;;;;;;;;;;12.70;54.90;;;12.84;57.70;99533.56;5074303;28;19932;-36
2023/12/24 09:18:58;;;;;;;;;;;12.70;55.50;;;12.85;58.60;99530.34;5074895;28;20031;-36
2023/12/24 09:21:26;;;;;;;;;;;12.70;55.00;;;12.84;58.49;99526.03;5074585;28;19979;-35
2023/12/24 09:23:55;;;;;;;;;;;12.70;54.90;;;12.82;58.02;99519.97;5074921;28;19947;-36
2023/12/24 09:26:22;;;;;;;;;;;12.70;55.10;;;12.81;58.28;99533.28;5074185;28;20384;-35
2023/12/24 09:28:50;;;;;;;;;;;12.60;55.00;;;12.80;58.48;99521.44;5074848;28;20324;-35
2023/12/24 09:31:18;;;;;;;;;;;12.60;55.00;;;12.78;58.61;99520.38;5074702;28;20355;-35
2023/12/24 09:33:48;;;;;;;;;;;12.60;55.10;;;12.76;58.33;99539.47;5074624;28;20019;-35
2023/12/24 09:36:16;;;;;;;;;;;12.60;55.10;;;12.76;58.71;99534.44;5074755;28;19924;-35
2023/12/24 09:38:44;;;;;;;;;;;12.60;55.10;;;12.76;58.78;99529.41;5074855;28;20019;-36
2023/12/24 09:41:11;;;;;;;;;;;12.60;55.20;;;12.73;58.42;99531.59;5074861;28;19924;-36
2023/12/24 09:43:40;;;;;;;;;;;12.60;55.30;;;12.72;58.79;99547.41;5074285;28;19925;-36
2023/12/24 09:46:07;;;;;;;;;;;12.60;55.40;;;12.70;58.37;99548.88;5074222;28;19989;-36
2023/12/24 09:48:35;;;;;;;;;;;12.50;55.30;;;12.69;59.18;99542.06;5074226;28;19968;-36
2023/12/24 09:51:06;;;;;;;;;;;12.50;55.30;;;12.68;58.91;99542.78;5073559;28;19928;-37
2023/12/24 09:53:34;;;;;;;;;;;12.50;55.40;;;12.68;59.42;99549.44;5073859;28;19925;-36
2023/12/24 09:56:03;;;;;;;;;;;12.50;55.30;;;12.67;58.54;99557.69;5074374;28;20312;-36
2023/12/24 09:58:31;;;;;;;;;;;12.50;55.40;;;12.65;58.54;99544.97;5073415;28;19947;-36
2023/12/24 10:00:59;;;;;;;;;;;12.50;55.40;;;12.64;58.62;99537.31;5073862;28;20319;-36
2023/12/24 10:03:27;;;;;;;;;;;12.50;55.60;;;12.64;59.47;99538.19;5073670;28;19970;-36
2023/12/24 10:06:03;;;;;;;;;;;12.50;55.70;;;12.62;59.38;99532.09;5073677;28;19925;-36
2023/12/24 10:08:32;;;;;;;;;;;12.50;55.70;;;12.64;59.24;99537.31;5073034;28;19978;-36
2023/12/24 10:11:15;;;;;;;;;;;12.40;55.60;;;12.59;58.73;99521.72;5074003;28;19955;-36
2023/12/24 10:13:44;;;;;;;;;;;12.50;55.70;;;12.64;58.88;99528.13;5087215;22;19967;-31
2023/12/24 10:16:12;;;;;;;;;;;12.40;55.60;;;12.65;59.36;99514.81;5070695;28;20335;-32
2023/12/24 10:18:48;;;;;;;;;;;12.40;55.70;;;12.65;59.45;99514.81;5073700;28;19946;-33
2023/12/24 10:21:16;;;;;;;;;;;12.50;55.80;;;12.68;59.03;99527.72;5073554;28;19929;-36
2023/12/24 10:23:45;;;;;;;;;;;12.50;55.90;;;12.68;58.61;99530.22;5073261;28;20125;-36
2023/12/24 10:26:13;;;;;;;;;;;12.50;55.80;;;12.68;59.09;99520.19;5073308;28;20273;-31
2023/12/24 10:28:46;;;;;;;;;;;12.50;55.80;;;12.72;59.09;99519.75;5073265;28;19948;-31
2023/12/24 10:31:14;;;;;;;;;;;12.50;55.70;;;12.71;59.26;99514.59;5073514;28;19964;-34
2023/12/24 10:33:42;;;;;;;;;;;12.50;55.70;;;12.73;58.93;99498.91;5073261;28;19925;-35
2023/12/24 10:36:11;;;;;;;;;;;12.50;55.60;;;12.74;59.41;99505.72;5073188;28;20384;-33
2023/12/24 10:38:39;;;;;;;;;;;12.50;55.70;;;12.74;58.63;99495.69;5071671;28;19975;-34
2023/12/24 10:41:08;;;;;;;;;;;12.50;55.60;;;12.74;58.61;99485.63;5067030;28;19924;-33
2023/12/24 10:43:36;;;;;;;;;;;12.50;55.50;;;12.79;58.25;99494.50;5072884;28;20429;-31
2023/12/24 10:46:04;;;;;;;;;;;12.50;55.50;;;12.80;58.19;99486.25;5073163;28;19928;-29
2023/12/24 10:48:32;;;;;;;;;;;12.60;55.50;;;12.80;58.51;99485.34;5072597;28;20178;-30
2023/12/24 10:51:00;;;;;;;;;;;12.60;55.50;;;12.81;58.41;99483.00;5064597;28;19963;-32
2023/12/24 10:53:28;;;;;;;;;;;12.60;55.40;;;12.81;58.34;99483.00;5073015;28;19970;-32
2023/12/24 10:56:00;;;;;;;;;;;12.60;55.50;;;12.82;58.50;99484.78;5073076;28;19932;-32
2023/12/24 10:58:35;;;;;;;;;;;12.60;55.50;;;12.80;58.54;99476.19;5072288;28;20035;-31
2023/12/24 11:01:05;;;;;;;;;;;12.60;55.40;;;12.83;58.76;99466.47;5073066;28;20011;-32
2023/12/24 11:03:47;;;;;;;;;;;12.60;55.60;;;12.81;58.71;99462.91;5072130;28;20395;-32
2023/12/24 11:06:46;;;;;;;;;;;12.60;55.40;;;12.83;58.86;99471.50;5072371;28;19924;-32
2023/12/24 11:09:42;;;;;;;;;;;12.60;55.70;;;12.83;58.66;99476.53;5069313;28;19931;-30
2023/12/24 11:12:30;;;;;;;;;;;12.70;55.70;;;12.83;58.62;99471.50;5067069;28;19925;-31
2023/12/24 11:14:59;;;;;;;;;;;12.70;55.90;;;12.84;59.00;99483.31;5064965;28;19950;-32
2023/12/24 11:17:49;;;;;;;;;;;12.70;55.70;;;12.83;58.53;99486.56;5063899;28;20028;-37
2023/12/24 11:20:31;;;;;;;;;;;12.70;55.70;;;12.84;58.87;99498.38;5067612;28;19947;-33
2023/12/24 11:23:12;;;;;;;;;;;12.70;55.80;;;12.82;58.66;99484.78;5072728;28;20398;-37